Time;durP1;ratioP1;P1;durP2;ratioP2;P2;SDS_P1;SDS_P2;PMS_P1;PMS_P2;Temp;Humidity;BMP_temperature;BMP_pressure;BME280_temperature;BME280_humidity;BME280_pressure;Samples;Min_cycle;Max_cycle;Signal;HPM_P1;HPM_P2
2021/12/20 00:01:13;;;;;;;;;22.50;20.50;;;;;7.17;72.47;102120.72;5076685;27;45455;-58
2021/12/20 00:03:39;;;;;;;;;29.00;23.75;;;;;7.22;72.40;102132.06;5093788;27;45506;-56
2021/12/20 00:06:04;;;;;;;;;27.75;24.00;;;;;7.24;72.97;102124.97;5079688;27;46178;-57
2021/12/20 00:08:31;;;;;;;;;27.00;21.75;;;;;7.20;72.38;102123.28;5056674;28;45346;-59
2021/12/20 00:10:56;;;;;;;;;24.75;22.75;;;;;7.21;72.78;102117.09;5084834;27;45211;-59
2021/12/20 00:13:22;;;;;;;;;29.00;24.00;;;;;7.21;72.86;102114.44;5095008;27;45554;-59
2021/12/20 00:15:48;;;;;;;;;35.00;27.00;;;;;7.23;72.65;102112.66;5090031;27;46314;-58
2021/12/20 00:18:13;;;;;;;;;28.25;24.75;;;;;7.30;73.04;102119.59;5082133;27;45367;-58
2021/12/20 00:20:40;;;;;;;;;30.75;27.25;;;;;7.31;72.69;102110.75;5073509;27;45405;-58
2021/12/20 00:23:05;;;;;;;;;24.50;23.00;;;;;7.36;72.39;102108.88;5075842;27;45497;-59
2021/12/20 00:25:32;;;;;;;;;27.75;23.75;;;;;7.33;72.93;102103.66;5077133;27;45992;-58
2021/12/20 00:27:57;;;;;;;;;23.00;21.00;;;;;7.37;72.52;102110.63;5075759;28;45347;-60
2021/12/20 00:30:22;;;;;;;;;30.00;25.00;;;;;7.32;72.69;102108.06;5075133;27;45520;-59
2021/12/20 00:32:48;;;;;;;;;27.75;24.25;;;;;7.37;72.54;102111.50;5075637;28;45536;-60
2021/12/20 00:35:14;;;;;;;;;31.25;27.00;;;;;7.39;72.50;102109.69;5091694;27;45437;-58
2021/12/20 00:40:23;;;;;;;;;27.00;22.75;;;;;7.39;72.12;102111.47;5084223;27;45684;-57
2021/12/20 00:42:55;;;;;;;;;25.00;22.25;;;;;7.38;71.74;102101.78;5094565;27;45329;-58
2021/12/20 00:45:23;;;;;;;;;26.00;21.00;;;;;7.41;72.44;102101.72;5083570;27;45379;-59
2021/12/20 00:47:49;;;;;;;;;24.00;19.75;;;;;7.38;71.85;102093.84;5095942;27;45295;-57
2021/12/20 00:50:16;;;;;;;;;25.00;18.50;;;;;7.36;72.15;102103.59;5077122;27;45388;-55
2021/12/20 00:52:42;;;;;;;;;27.50;22.25;;;;;7.33;72.34;102093.06;5088071;27;45686;-57
2021/12/20 00:55:09;;;;;;;;;27.25;21.50;;;;;7.39;72.36;102100.88;5075296;28;46864;-58
2021/12/20 00:57:34;;;;;;;;;24.50;23.25;;;;;7.36;72.27;102104.47;5078849;28;45563;-59
2021/12/20 01:00:00;;;;;;;;;29.25;24.00;;;;;7.36;72.52;102099.16;5074562;28;45500;-58
2021/12/20 01:02:26;;;;;;;;;26.00;21.50;;;;;7.35;71.63;102096.53;5076885;28;45511;-56
2021/12/20 01:04:51;;;;;;;;;31.25;21.25;;;;;7.30;72.16;102090.47;5064788;28;45497;-60
2021/12/20 01:07:17;;;;;;;;;29.50;25.50;;;;;7.27;71.84;102087.88;5070958;28;45311;-57
2021/12/20 01:09:42;;;;;;;;;28.00;24.00;;;;;7.26;72.29;102080.84;5078243;28;45471;-56
2021/12/20 01:12:15;;;;;;;;;32.25;24.75;;;;;7.24;72.34;102082.63;5078745;28;45645;-59
2021/12/20 01:14:41;;;;;;;;;31.25;22.25;;;;;7.22;72.25;102080.03;5070648;28;45454;-57
2021/12/20 01:17:07;;;;;;;;;28.75;21.00;;;;;7.17;72.82;102070.44;5058336;28;45412;-58
2021/12/20 01:19:33;;;;;;;;;30.75;23.25;;;;;7.23;72.28;102080.91;5069595;28;45410;-64
2021/12/20 01:22:00;;;;;;;;;25.75;21.75;;;;;7.29;72.50;102084.31;5070053;28;45528;-59
2021/12/20 01:24:25;;;;;;;;;25.75;22.25;;;;;7.24;72.53;102069.41;5077978;28;46300;-59
2021/12/20 01:26:51;;;;;;;;;21.00;20.00;;;;;7.24;72.54;102072.94;5070827;28;45341;-57
2021/12/20 01:29:16;;;;;;;;;26.75;24.00;;;;;7.29;72.85;102076.38;5078569;27;45225;-59
2021/12/20 01:31:41;;;;;;;;;25.00;21.75;;;;;7.34;72.43;102078.94;5089632;27;45827;-58
2021/12/20 01:34:07;;;;;;;;;18.25;17.50;;;;;7.32;72.51;102063.09;5060016;28;45259;-56
2021/12/20 01:36:32;;;;;;;;;24.25;23.00;;;;;7.31;72.39;102065.75;5060077;28;45474;-58
2021/12/20 01:38:58;;;;;;;;;29.00;24.50;;;;;7.35;72.03;102070.09;5078743;28;45272;-57
2021/12/20 01:41:24;;;;;;;;;31.75;26.00;;;;;7.37;71.90;102074.44;5078568;28;45219;-59
2021/12/20 01:43:50;;;;;;;;;25.75;21.25;;;;;7.39;72.16;102077.06;5076862;28;45423;-58
2021/12/20 01:46:16;;;;;;;;;20.75;16.00;;;;;7.35;72.54;102075.38;5078122;28;45422;-55
2021/12/20 01:48:43;;;;;;;;;25.00;19.75;;;;;7.37;72.13;102077.09;5064971;27;45371;-57
2021/12/20 01:53:54;;;;;;;;;26.25;25.25;;;;;7.36;72.33;102061.25;5090782;27;45468;-58
2021/12/20 01:56:20;;;;;;;;;31.50;25.25;;;;;7.35;72.97;102070.09;5075710;27;45382;-56
2021/12/20 01:58:45;;;;;;;;;30.75;25.25;;;;;7.38;72.37;102070.00;5077666;27;45416;-59
2021/12/20 02:03:44;;;;;;;;;32.00;30.50;;;;;7.37;71.70;102062.97;5087378;27;45815;-58
2021/12/20 02:08:52;;;;;;;;;34.00;29.50;;;;;7.36;71.57;102058.59;5067664;27;45519;-56
2021/12/20 02:11:19;;;;;;;;;34.25;31.25;;;;;7.39;71.81;102059.41;5098194;27;45486;-59
2021/12/20 02:13:45;;;;;;;;;35.25;25.25;;;;;7.40;71.59;102060.25;5063648;27;45285;-59
2021/12/20 02:16:10;;;;;;;;;38.00;32.75;;;;;7.39;71.65;102048.81;5059364;27;45459;-58
2021/12/20 02:18:36;;;;;;;;;53.50;39.00;;;;;7.45;71.42;102054.91;5077639;27;45362;-58
2021/12/20 02:21:02;;;;;;;;;41.25;38.00;;;;;7.46;71.61;102057.50;5056730;28;45580;-56
2021/12/20 02:23:28;;;;;;;;;40.25;37.50;;;;;7.43;71.35;102057.59;5077670;27;45453;-58
2021/12/20 02:25:53;;;;;;;;;37.50;34.25;;;;;7.40;71.29;102055.84;5091681;27;45307;-58
2021/12/20 02:28:21;;;;;;;;;34.75;27.50;;;;;7.36;70.99;102053.28;5097037;27;45219;-56
2021/12/20 02:38:44;;;;;;;;;42.00;36.00;;;;;7.36;70.94;102051.53;5062225;27;45548;-60
2021/12/20 02:41:17;;;;;;;;;50.75;38.75;;;;;7.39;70.54;102053.22;5076560;27;45334;-58
2021/12/20 02:43:57;;;;;;;;;36.50;30.00;;;;;7.38;70.86;102059.44;5077324;27;45448;-60
2021/12/20 02:48:55;;;;;;;;;42.25;40.25;;;;;7.33;70.94;102045.44;5076781;27;45489;-60
2021/12/20 02:51:23;;;;;;;;;39.75;31.75;;;;;7.30;70.72;102040.19;5077721;28;45227;-58
2021/12/20 02:53:54;;;;;;;;;43.25;39.75;;;;;7.27;71.48;102040.22;5086765;27;45596;-59
2021/12/20 02:56:20;;;;;;;;;50.00;40.00;;;;;7.28;71.06;102037.56;5096021;27;45472;-57
2021/12/20 02:58:45;;;;;;;;;45.75;37.25;;;;;7.33;71.36;102045.44;5092964;27;45379;-61
2021/12/20 03:01:11;;;;;;;;;45.25;41.25;;;;;7.36;71.01;102048.00;5077100;27;45568;-57
2021/12/20 03:03:37;;;;;;;;;51.25;40.00;;;;;7.36;70.75;102042.72;5086459;27;45428;-59
2021/12/20 03:06:19;;;;;;;;;46.75;37.25;;;;;7.36;71.13;102042.72;5067999;27;45334;-63
2021/12/20 03:08:48;;;;;;;;;50.75;43.75;;;;;7.38;71.35;102044.41;5085985;27;45463;-60
2021/12/20 03:11:14;;;;;;;;;42.75;35.00;;;;;7.39;71.42;102034.69;5075997;27;45410;-59
2021/12/20 03:13:41;;;;;;;;;48.50;40.25;;;;;7.43;71.46;102036.41;5077197;27;46182;-60
2021/12/20 03:16:07;;;;;;;;;48.00;39.00;;;;;7.44;71.36;102026.69;5053619;28;46701;-60
2021/12/20 03:18:32;;;;;;;;;44.50;37.50;;;;;7.41;70.57;102024.94;5081773;27;45483;-59
2021/12/20 03:20:58;;;;;;;;;43.50;36.00;;;;;7.39;70.56;102018.81;5097804;27;45314;-55
2021/12/20 03:23:23;;;;;;;;;40.25;33.25;;;;;7.42;70.37;102017.88;5071089;27;47239;-55
2021/12/20 03:25:48;;;;;;;;;47.25;36.75;;;;;7.40;70.32;102029.38;5077424;27;45258;-58
2021/12/20 03:28:14;;;;;;;;;40.25;32.75;;;;;7.39;70.10;102013.53;5057927;27;45539;-58
2021/12/20 03:30:40;;;;;;;;;34.25;32.00;;;;;7.44;70.34;102010.81;5082527;27;45493;-55
2021/12/20 03:33:05;;;;;;;;;43.50;37.50;;;;;7.43;70.44;102014.38;5079289;27;46341;-57
2021/12/20 03:35:31;;;;;;;;;41.50;37.00;;;;;7.39;69.86;102016.19;5080565;27;45381;-58
2021/12/20 03:37:57;;;;;;;;;36.50;30.25;;;;;7.36;70.43;102018.88;5096820;27;45366;-58
2021/12/20 03:40:23;;;;;;;;;49.75;35.75;;;;;7.36;70.03;102008.31;5084970;27;45503;-59
2021/12/20 03:42:49;;;;;;;;;35.75;35.50;;;;;7.42;69.99;102008.16;5088996;27;46524;-58
2021/12/20 03:45:15;;;;;;;;;39.00;33.75;;;;;7.42;69.73;102016.09;5057585;28;45506;-57
2021/12/20 03:47:42;;;;;;;;;35.00;34.25;;;;;7.42;70.25;102009.94;5076287;28;46200;-58
2021/12/20 03:50:09;;;;;;;;;35.25;27.50;;;;;7.34;70.21;101992.47;5076208;28;45445;-57
2021/12/20 03:52:38;;;;;;;;;52.50;37.50;;;;;7.38;70.32;102007.38;5072301;28;46515;-59
2021/12/20 03:55:08;;;;;;;;;36.25;29.75;;;;;7.31;70.12;101989.00;5072643;28;45668;-57
2021/12/20 03:57:34;;;;;;;;;48.50;39.50;;;;;7.40;70.32;102008.19;5073715;28;45636;-59
2021/12/20 03:59:59;;;;;;;;;37.00;28.00;;;;;7.36;70.40;102003.00;5073539;28;45580;-57
2021/12/20 04:02:26;;;;;;;;;46.00;33.00;;;;;7.38;69.99;102006.50;5073515;28;45421;-57
2021/12/20 04:04:52;;;;;;;;;51.25;34.75;;;;;7.36;69.56;102014.47;5072732;27;45834;-58
2021/12/20 04:07:17;;;;;;;;;37.75;35.25;;;;;7.38;70.52;102017.09;5072206;27;45861;-56
2021/12/20 04:09:43;;;;;;;;;39.25;32.75;;;;;7.35;69.89;102001.28;5073088;28;45604;-57
2021/12/20 04:12:09;;;;;;;;;43.75;34.75;;;;;7.35;69.84;102006.56;5075674;28;45420;-58
2021/12/20 04:14:34;;;;;;;;;38.25;31.00;;;;;7.30;70.35;102004.03;5075410;28;45378;-59
2021/12/20 04:17:00;;;;;;;;;35.25;30.25;;;;;7.30;70.10;102014.59;5075567;28;45482;-58
2021/12/20 04:19:25;;;;;;;;;35.75;26.75;;;;;7.24;70.10;102008.53;5054317;28;45441;-57
2021/12/20 04:21:51;;;;;;;;;38.25;29.25;;;;;7.18;70.61;102004.25;5037595;28;45529;-60
2021/12/20 04:24:16;;;;;;;;;36.25;32.00;;;;;7.17;70.50;102014.88;5064642;28;45486;-59
2021/12/20 04:26:41;;;;;;;;;33.75;30.50;;;;;7.12;70.41;102011.44;5090354;27;45378;-58
2021/12/20 04:29:07;;;;;;;;;32.50;26.25;;;;;7.08;70.47;102002.69;5094290;27;45413;-59
2021/12/20 04:31:35;;;;;;;;;29.50;28.25;;;;;7.16;71.01;102008.72;5056433;28;45469;-58
2021/12/20 04:34:01;;;;;;;;;40.00;30.75;;;;;7.17;70.53;102021.03;5041048;28;45339;-58
2021/12/20 04:36:26;;;;;;;;;35.75;28.25;;;;;7.11;70.93;102013.19;5070055;28;45389;-60
2021/12/20 04:38:51;;;;;;;;;36.50;30.50;;;;;6.98;70.83;102001.97;5088662;27;45556;-58
2021/12/20 04:41:17;;;;;;;;;33.50;32.75;;;;;7.06;70.82;102005.38;5073820;28;46342;-59
2021/12/20 04:43:42;;;;;;;;;35.00;30.00;;;;;6.98;71.32;102001.97;5069029;28;45267;-57
2021/12/20 04:46:08;;;;;;;;;31.75;26.50;;;;;7.02;70.89;102010.72;5079444;28;45304;-61
2021/12/20 04:48:33;;;;;;;;;30.50;30.25;;;;;7.05;71.32;102011.56;5079110;28;45349;-59
2021/12/20 04:50:59;;;;;;;;;34.75;28.25;;;;;7.07;70.51;102001.81;5079048;28;45355;-59
2021/12/20 04:53:24;;;;;;;;;26.75;21.00;;;;;7.06;70.94;102000.06;5047495;27;45260;-59
2021/12/20 04:55:49;;;;;;;;;30.50;28.25;;;;;7.09;70.94;102005.28;5078932;28;45239;-60
2021/12/20 04:58:15;;;;;;;;;35.25;30.75;;;;;7.08;70.72;102008.84;5078850;28;45504;-59
2021/12/20 05:00:43;;;;;;;;;36.50;29.75;;;;;7.01;70.84;102007.22;5077425;27;45452;-59
2021/12/20 05:03:09;;;;;;;;;39.75;29.25;;;;;7.01;70.95;102007.22;5077721;28;45406;-57
2021/12/20 05:05:35;;;;;;;;;32.50;25.50;;;;;7.01;71.14;102007.22;5077102;28;45508;-59
2021/12/20 05:08:03;;;;;;;;;34.25;31.75;;;;;7.04;70.96;102017.75;5078730;28;45508;-55
2021/12/20 05:10:34;;;;;;;;;23.50;20.25;;;;;7.05;70.75;102013.34;5073605;27;47486;-54
2021/12/20 05:13:05;;;;;;;;;37.25;24.25;;;;;7.03;70.83;102004.53;5074142;27;45524;-57
2021/12/20 05:15:31;;;;;;;;;29.75;25.75;;;;;7.08;71.05;102008.84;5086862;27;45481;-59
2021/12/20 05:17:58;;;;;;;;;34.25;28.50;;;;;7.01;70.93;102011.63;5086269;27;45408;-57
2021/12/20 05:20:24;;;;;;;;;28.50;23.75;;;;;7.02;70.75;102013.38;5062681;27;46000;-59
2021/12/20 05:22:50;;;;;;;;;32.75;26.50;;;;;7.01;70.70;102012.50;5077402;27;45628;-59
2021/12/20 05:25:16;;;;;;;;;26.50;24.00;;;;;7.04;71.09;102017.75;5082955;27;45421;-58
2021/12/20 05:27:41;;;;;;;;;26.00;24.50;;;;;7.08;71.06;102023.84;5078753;27;45389;-60
2021/12/20 05:30:09;;;;;;;;;25.75;23.25;;;;;7.06;70.87;102013.31;5079494;27;46524;-61
2021/12/20 05:32:35;;;;;;;;;31.50;27.25;;;;;7.08;70.23;102007.97;5081783;27;45368;-60
2021/12/20 05:35:00;;;;;;;;;38.75;29.00;;;;;7.03;70.39;102016.00;5060345;28;45304;-59
2021/12/20 05:37:26;;;;;;;;;23.50;21.50;;;;;7.04;70.51;102012.47;5078972;28;45548;-58
2021/12/20 05:39:52;;;;;;;;;24.25;22.75;;;;;7.00;70.97;101992.25;5076994;27;46646;-61
2021/12/20 05:42:17;;;;;;;;;41.00;29.25;;;;;7.04;70.56;102001.00;5077004;28;45378;-64
2021/12/20 05:44:42;;;;;;;;;31.00;25.25;;;;;7.03;70.21;102000.13;5078418;28;45560;-58
2021/12/20 05:47:08;;;;;;;;;31.75;26.75;;;;;6.98;70.87;101999.34;5077195;28;45363;-61
2021/12/20 05:49:33;;;;;;;;;26.25;24.00;;;;;7.05;70.68;102002.75;5059715;28;46561;-60
2021/12/20 05:52:02;;;;;;;;;32.00;28.00;;;;;7.04;70.55;102007.16;5077120;28;45544;-60
2021/12/20 05:54:30;;;;;;;;;33.00;26.50;;;;;7.07;70.73;102012.41;5078320;28;45515;-61
2021/12/20 05:56:55;;;;;;;;;31.75;24.75;;;;;7.12;70.39;102008.78;5078763;27;45645;-60
2021/12/20 05:59:21;;;;;;;;;33.50;27.25;;;;;7.18;70.96;102014.84;5076539;27;46292;-60
2021/12/20 06:01:46;;;;;;;;;36.50;27.75;;;;;7.20;70.97;102017.47;5064620;28;45510;-58
2021/12/20 06:04:11;;;;;;;;;23.25;19.75;;;;;7.24;70.06;102011.19;5059004;28;45595;-58
2021/12/20 06:06:37;;;;;;;;;38.00;29.75;;;;;7.20;70.57;102013.03;5077978;28;45626;-59
2021/12/20 06:09:02;;;;;;;;;36.50;31.00;;;;;7.24;70.83;102017.34;5077877;28;46189;-59
2021/12/20 06:11:28;;;;;;;;;36.25;31.25;;;;;7.23;70.25;102001.50;5078187;28;45306;-61
2021/12/20 06:13:53;;;;;;;;;35.25;29.50;;;;;7.21;70.82;101998.03;5077906;28;45351;-58
2021/12/20 06:16:19;;;;;;;;;36.00;31.75;;;;;7.19;70.93;102000.72;5077969;28;45428;-59
2021/12/20 06:18:44;;;;;;;;;32.75;25.00;;;;;7.23;70.56;102012.09;5077397;28;46002;-57
2021/12/20 06:21:10;;;;;;;;;28.00;23.75;;;;;7.18;70.29;101998.09;5059372;28;45343;-57
2021/12/20 06:23:35;;;;;;;;;33.00;24.75;;;;;7.15;70.28;102003.41;5077717;28;45369;-60
2021/12/20 06:26:02;;;;;;;;;30.25;23.25;;;;;7.15;70.55;102017.53;5077994;28;45291;-58
2021/12/20 06:28:29;;;;;;;;;35.50;26.75;;;;;7.19;70.12;102016.59;5078180;28;45936;-59
2021/12/20 06:30:54;;;;;;;;;30.00;27.50;;;;;7.17;69.99;102012.22;5077837;28;45325;-61
2021/12/20 06:33:20;;;;;;;;;34.50;29.25;;;;;7.14;70.08;102012.25;5077974;28;45229;-62
2021/12/20 06:35:46;;;;;;;;;32.25;26.75;;;;;7.15;70.38;102020.16;5077987;28;45371;-59
2021/12/20 06:38:18;;;;;;;;;35.75;28.50;;;;;7.16;70.42;102015.75;5059062;28;46295;-58
2021/12/20 06:40:44;;;;;;;;;34.75;31.50;;;;;7.13;70.49;102021.97;5076271;28;45382;-60
2021/12/20 06:43:09;;;;;;;;;26.25;23.25;;;;;7.12;70.30;102024.66;5076562;28;45353;-60
2021/12/20 06:45:35;;;;;;;;;34.00;23.25;;;;;7.10;69.84;102020.25;5076608;28;46939;-60
2021/12/20 06:48:01;;;;;;;;;35.75;31.25;;;;;7.12;70.32;102024.66;5077380;27;45972;-62
2021/12/20 06:50:27;;;;;;;;;30.75;24.00;;;;;7.17;70.55;102025.47;5077281;28;45313;-60
2021/12/20 06:52:52;;;;;;;;;29.75;24.00;;;;;7.17;69.97;102028.09;5076621;28;45299;-62
2021/12/20 06:55:18;;;;;;;;;26.25;23.50;;;;;7.14;69.67;102028.13;5059030;28;45578;-60
2021/12/20 06:57:44;;;;;;;;;34.25;25.25;;;;;7.15;69.98;102036.03;5077116;28;45993;-60
2021/12/20 07:00:10;;;;;;;;;26.25;25.25;;;;;7.15;69.81;102035.16;5077081;28;45391;-60
2021/12/20 07:02:35;;;;;;;;;28.25;23.75;;;;;7.19;69.76;102036.88;5077190;28;45407;-60
2021/12/20 07:05:01;;;;;;;;;27.25;24.25;;;;;7.18;69.95;102036.00;5077806;28;45525;-58
2021/12/20 07:07:28;;;;;;;;;32.75;23.25;;;;;7.19;69.57;102036.88;5075537;28;47664;-59
2021/12/20 07:09:53;;;;;;;;;29.75;27.50;;;;;7.17;69.84;102038.69;5077013;28;45262;-62
2021/12/20 07:12:19;;;;;;;;;32.25;26.50;;;;;7.12;69.69;102041.41;5076788;28;45398;-59
2021/12/20 07:14:48;;;;;;;;;27.50;25.75;;;;;7.14;69.25;102039.59;5076352;28;45731;-59
2021/12/20 07:17:14;;;;;;;;;20.00;14.75;;;;;7.03;69.23;102038.91;5058219;28;47911;-60
2021/12/20 07:19:39;;;;;;;;;21.50;18.50;;;;;7.03;69.09;102037.19;5058442;28;45358;-59
2021/12/20 07:22:05;;;;;;;;;19.50;19.25;;;;;7.06;69.09;102034.47;5058757;28;45475;-59
2021/12/20 07:24:30;;;;;;;;;24.75;20.50;;;;;7.04;69.46;102036.28;5077439;28;45331;-60
2021/12/20 07:26:55;;;;;;;;;19.00;17.50;;;;;7.04;69.04;102044.22;5076954;28;46151;-60
2021/12/20 07:29:21;;;;;;;;;24.00;19.50;;;;;6.99;68.33;102040.75;5076773;28;45318;-60
2021/12/20 07:31:46;;;;;;;;;19.50;16.75;;;;;6.98;68.65;102048.72;5076721;28;45875;-59
2021/12/20 07:34:12;;;;;;;;;23.00;16.00;;;;;6.97;69.36;102053.13;5076975;28;45333;-60
2021/12/20 07:36:37;;;;;;;;;16.75;14.50;;;;;6.97;68.58;102042.56;5076220;28;45368;-58
2021/12/20 07:39:05;;;;;;;;;20.50;14.50;;;;;6.94;68.49;102044.41;5076274;28;45347;-58
2021/12/20 07:41:30;;;;;;;;;16.25;14.25;;;;;6.93;69.14;102043.53;5076794;28;45435;-59
2021/12/20 07:43:56;;;;;;;;;20.00;20.00;;;;;6.93;68.74;102050.59;5076240;28;45546;-59
2021/12/20 07:46:21;;;;;;;;;19.00;14.00;;;;;6.89;69.08;102049.75;5076286;28;46137;-60
2021/12/20 07:48:47;;;;;;;;;23.50;20.75;;;;;6.94;69.07;102058.50;5075796;28;45396;-60
2021/12/20 07:51:13;;;;;;;;;24.00;19.00;;;;;6.88;68.74;102047.13;5076336;28;45341;-60
2021/12/20 07:53:38;;;;;;;;;19.75;16.50;;;;;6.92;68.64;102048.84;5059460;28;45344;-58
2021/12/20 07:56:07;;;;;;;;;27.25;19.25;;;;;6.89;68.51;102036.53;5074200;28;45409;-61
2021/12/20 07:58:32;;;;;;;;;23.00;22.50;;;;;6.94;68.90;102052.31;5076062;28;45220;-61
2021/12/20 08:01:01;;;;;;;;;15.50;14.25;;;;;6.85;68.85;102042.78;5075734;28;45288;-60
2021/12/20 08:03:27;;;;;;;;;9.25;7.50;;;;;6.86;69.21;102049.81;5076253;28;45472;-60
2021/12/20 08:05:53;;;;;;;;;23.25;19.75;;;;;6.91;68.84;102050.63;5074845;28;45495;-59
2021/12/20 08:08:18;;;;;;;;;23.75;20.75;;;;;6.89;68.87;102046.22;5075741;28;45417;-60
2021/12/20 08:10:43;;;;;;;;;26.00;18.25;;;;;6.90;69.38;102053.25;5075932;28;45433;-59
2021/12/20 08:13:10;;;;;;;;;13.25;13.25;;;;;6.94;68.89;102053.19;5075963;28;45573;-62
2021/12/20 08:15:36;;;;;;;;;34.00;26.50;;;;;6.94;68.97;102052.31;5076030;28;46510;-59
2021/12/20 08:18:01;;;;;;;;;23.00;14.75;;;;;6.85;68.24;102048.06;5076129;28;45226;-61
2021/12/20 08:20:27;;;;;;;;;33.00;26.50;;;;;6.85;68.50;102053.34;5076196;28;45212;-59
2021/12/20 08:22:52;;;;;;;;;26.25;25.25;;;;;6.85;68.52;102053.34;5053786;28;45626;-59
2021/12/20 08:25:19;;;;;;;;;24.75;21.50;;;;;6.85;68.96;102058.63;5054452;28;45459;-61
2021/12/20 08:27:46;;;;;;;;;24.75;21.25;;;;;6.86;68.94;102064.81;5037443;28;45456;-61
2021/12/20 08:30:12;;;;;;;;;23.25;18.25;;;;;6.80;68.33;102066.66;5055680;28;45937;-60
2021/12/20 08:32:39;;;;;;;;;26.75;24.50;;;;;6.78;68.61;102057.03;5055479;28;45363;-58
2021/12/20 08:35:07;;;;;;;;;25.50;23.25;;;;;6.71;68.78;102055.34;5055636;28;45391;-59
2021/12/20 08:37:33;;;;;;;;;29.25;21.75;;;;;6.78;68.93;102068.47;5055665;28;45393;-59
2021/12/20 08:39:58;;;;;;;;;24.50;20.75;;;;;6.79;69.00;102070.22;5071143;28;45485;-60
2021/12/20 08:42:24;;;;;;;;;27.00;22.50;;;;;6.80;68.65;102074.59;5057442;28;45527;-60
2021/12/20 08:44:49;;;;;;;;;23.00;20.25;;;;;6.83;69.11;102081.59;5075452;28;46148;-59
2021/12/20 08:47:16;;;;;;;;;24.50;23.75;;;;;6.85;68.56;102079.78;5075395;28;45356;-58
2021/12/20 08:49:42;;;;;;;;;32.25;24.00;;;;;6.83;68.88;102075.44;5075519;28;45252;-60
2021/12/20 08:52:09;;;;;;;;;31.50;27.50;;;;;6.83;68.59;102084.25;5075485;28;45893;-61
2021/12/20 08:54:34;;;;;;;;;24.75;22.00;;;;;6.82;68.61;102079.84;5074476;28;48074;-59
2021/12/20 08:57:00;;;;;;;;;25.25;23.00;;;;;6.77;68.21;102086.97;5075203;28;45367;-60
2021/12/20 08:59:25;;;;;;;;;40.50;29.75;;;;;6.82;68.14;102085.16;5075464;28;45303;-61
2021/12/20 09:01:51;;;;;;;;;29.50;26.50;;;;;6.86;67.78;102092.13;5075532;28;45562;-60
2021/12/20 09:04:17;;;;;;;;;23.50;19.50;;;;;6.85;67.78;102085.09;5040329;28;45506;-59
2021/12/20 09:06:43;;;;;;;;;26.75;23.75;;;;;6.90;67.85;102092.94;5075169;28;45514;-58
2021/12/20 09:09:12;;;;;;;;;35.75;30.00;;;;;6.87;67.57;102083.28;5075286;28;45441;-59
2021/12/20 09:11:37;;;;;;;;;32.00;27.00;;;;;6.92;67.43;102092.03;5075832;28;45314;-59
2021/12/20 09:14:03;;;;;;;;;32.75;26.75;;;;;6.92;67.22;102088.50;5075206;28;45419;-59
2021/12/20 09:16:29;;;;;;;;;32.50;24.75;;;;;6.95;67.10;102096.38;5076310;28;45348;-58
2021/12/20 09:18:54;;;;;;;;;28.25;24.25;;;;;6.99;67.02;102098.06;5078708;28;45429;-58
2021/12/20 09:21:21;;;;;;;;;36.00;29.25;;;;;6.88;67.34;102070.94;5079233;28;45264;-58
2021/12/20 09:23:47;;;;;;;;;36.75;21.00;;;;;6.93;67.34;102080.56;5059932;28;46721;-60
2021/12/20 09:26:12;;;;;;;;;27.00;25.25;;;;;7.01;67.01;102093.63;5076895;28;45411;-57
2021/12/20 09:28:38;;;;;;;;;19.75;18.75;;;;;7.03;66.93;102091.81;5079007;28;45315;-59
2021/12/20 09:31:05;;;;;;;;;24.50;19.25;;;;;6.99;67.01;102091.00;5078748;28;45235;-60
2021/12/20 09:33:31;;;;;;;;;25.75;22.00;;;;;6.96;67.14;102085.78;5078349;28;45642;-59
2021/12/20 09:35:56;;;;;;;;;21.00;17.25;;;;;7.01;67.33;102093.63;5078316;27;45355;-58
2021/12/20 09:38:23;;;;;;;;;29.75;24.00;;;;;7.02;67.07;102090.06;5059629;28;45443;-58
2021/12/20 09:43:51;;;;;;;;;27.75;23.75;;;;;7.03;66.68;102100.66;5032853;28;45971;-58
2021/12/20 09:46:18;;;;;;;;;22.25;19.50;;;;;7.06;67.43;102094.44;5078242;28;45358;-59
2021/12/20 09:48:50;;;;;;;;;26.50;21.25;;;;;7.09;66.59;102089.97;5077948;28;45481;-58
2021/12/20 09:51:17;;;;;;;;;26.00;21.25;;;;;7.08;66.79;102095.28;5078450;28;45495;-57
2021/12/20 09:53:43;;;;;;;;;27.00;24.75;;;;;7.08;66.52;102098.78;5077976;28;45500;-60
2021/12/20 09:56:09;;;;;;;;;24.50;20.50;;;;;7.04;66.82;102094.47;5077430;28;46546;-57
2021/12/20 09:58:39;;;;;;;;;30.00;21.75;;;;;7.04;67.04;102102.41;5042642;28;45394;-58
2021/12/20 10:01:07;;;;;;;;;18.00;14.75;;;;;7.07;66.77;102091.75;5059906;28;45280;-60
2021/12/20 10:03:34;;;;;;;;;22.50;20.00;;;;;7.06;66.50;102082.09;5077604;28;45441;-62
2021/12/20 10:06:00;;;;;;;;;21.75;16.25;;;;;7.00;66.60;102092.75;5077783;28;45484;-61
2021/12/20 10:08:32;;;;;;;;;28.00;23.75;;;;;7.04;66.50;102107.69;5077864;28;45370;-59
2021/12/20 10:11:01;;;;;;;;;29.25;24.50;;;;;7.02;66.63;102098.88;5077154;28;45708;-58
2021/12/20 10:13:33;;;;;;;;;31.50;25.25;;;;;7.07;65.87;102102.34;5078118;28;46445;-60
2021/12/20 10:15:59;;;;;;;;;24.25;23.25;;;;;7.05;65.12;102098.84;5078237;28;45335;-60
2021/12/20 10:18:27;;;;;;;;;22.75;16.50;;;;;7.06;66.22;102100.59;5077728;28;45416;-59
2021/12/20 10:20:56;;;;;;;;;22.50;17.00;;;;;7.09;65.95;102105.81;5077972;28;45543;-61
2021/12/20 10:23:27;;;;;;;;;36.00;23.25;;;;;7.05;65.79;102093.56;5040723;28;48645;-59
2021/12/20 10:25:55;;;;;;;;;19.75;16.25;;;;;7.06;65.75;102090.00;5056652;28;45796;-62
2021/12/20 10:28:24;;;;;;;;;26.75;23.75;;;;;7.02;65.95;102090.06;5054922;28;45310;-59
2021/12/20 10:30:59;;;;;;;;;24.50;19.50;;;;;7.09;65.67;102097.91;5057364;28;45335;-58
2021/12/20 10:33:26;;;;;;;;;24.00;20.75;;;;;7.09;65.44;102089.97;5058203;28;45374;-58
2021/12/20 10:35:54;;;;;;;;;33.75;26.00;;;;;7.07;65.89;102096.19;5071789;28;45846;-60
2021/12/20 10:38:25;;;;;;;;;25.00;19.25;;;;;7.13;65.67;102095.19;5057123;28;45185;-57
2021/12/20 10:41:01;;;;;;;;;17.00;15.25;;;;;7.12;65.49;102093.44;5068943;28;45280;-58
2021/12/20 10:43:33;;;;;;;;;20.75;20.75;;;;;7.06;65.71;102079.44;5075850;28;45455;-60
2021/12/20 10:45:59;;;;;;;;;23.50;21.50;;;;;7.06;65.92;102095.31;5058774;28;45484;-64
2021/12/20 10:48:33;;;;;;;;;15.50;15.50;;;;;7.02;65.15;102080.38;5076563;28;45462;-59
2021/12/20 10:50:59;;;;;;;;;18.00;16.00;;;;;7.06;65.66;102082.09;5077602;28;45423;-59
2021/12/20 10:53:26;;;;;;;;;1.75;1.00;;;;;7.00;65.53;102074.25;5077184;28;46414;-58
2021/12/20 10:56:03;;;;;;;;;16.00;13.50;;;;;7.08;65.17;102082.91;5059014;28;45264;-58
2021/12/20 10:58:32;;;;;;;;;19.25;17.75;;;;;7.10;65.23;102073.19;5077060;28;45850;-61
2021/12/20 11:01:17;;;;;;;;;19.75;16.00;;;;;7.07;65.25;102075.88;5077233;28;45402;-58
2021/12/20 11:03:53;;;;;;;;;27.75;21.25;;;;;7.02;64.98;102080.38;5077121;28;46275;-60
2021/12/20 11:11:33;;;;;;;;;17.25;12.25;;;;;7.00;65.46;102079.53;5075877;28;45481;-59
2021/12/20 11:14:00;;;;;;;;;10.50;6.00;;;;;7.01;65.33;102064.53;5076226;28;46287;-59
2021/12/20 11:16:35;;;;;;;;;17.50;15.00;;;;;7.03;65.83;102065.38;5076551;28;45517;-59
2021/12/20 11:19:07;;;;;;;;;18.00;13.25;;;;;7.06;65.26;102067.97;5076895;28;45396;-60
2021/12/20 11:21:33;;;;;;;;;17.50;16.00;;;;;7.05;65.59;102066.25;5076933;28;45220;-58
2021/12/20 11:24:00;;;;;;;;;15.00;13.75;;;;;7.06;65.38;102062.69;5057543;28;48059;-60
2021/12/20 11:26:29;;;;;;;;;27.00;15.00;;;;;7.05;65.24;102056.53;5076901;28;45739;-60
2021/12/20 11:28:56;;;;;;;;;13.75;13.25;;;;;7.05;64.93;102050.38;5076738;28;45377;-61
2021/12/20 11:31:21;;;;;;;;;23.00;14.50;;;;;7.03;65.27;102058.34;5076737;28;45437;-58
2021/12/20 11:33:47;;;;;;;;;23.00;17.00;;;;;7.07;65.33;102054.72;5076670;28;46511;-59
2021/12/20 11:36:13;;;;;;;;;17.25;13.25;;;;;7.07;64.65;102046.78;5059036;28;45271;-60
2021/12/20 11:38:41;;;;;;;;;17.25;16.00;;;;;6.98;64.83;102033.72;5056822;28;45260;-58
2021/12/20 11:41:07;;;;;;;;;13.75;12.50;;;;;7.08;64.58;102048.53;5055896;28;45550;-58
2021/12/20 11:43:33;;;;;;;;;20.50;15.75;;;;;7.08;64.45;102040.59;5076734;28;45463;-61